Bloomington, Wisconsin
Current Conditions -  °F | °C
As of 9:35 PM on Sunday 28 Dec 2014 (Local Time) from KPDC Reporting Station
Clear Clear  
Wind Chill: -4°   Ceiling: Unl
Heat Index: -4°   Visibility: 10mi
Dew Point: -8°   Wind: 3mph
Humidity: 76%   Direction: 350°N
Pressure: 30.26"   Gusts: NA
Location:  42.89°N, 90.92°W
Report Text: KPDC 290335Z AUTO 35003KT 10SM CLR M04/M07 A3026 RMK AO2 T10381075
Loading
Personal Weather Stations






























Interactive Weather Map New forecast layout! Learn more

10-Day Weather Forecast

Advertisements
Track Severe Weather on mobile